Darstellungsparameter: Aktuell verwendete Einstellungen:
Skalierung der Graphiken ... ?
xyx+y,   Skalierungsfaktor:      Skalierung: Modus: x, Faktor: 1
Darstellungszeitraum ... ?
Vom - - bis: - -   Zeitraum: 16.02.2017 - 15.05.2017
Min/Max/Avg-Anzeige ... ?
Zeige MMA aktuell
Zeige MMA Monat
Zeige MMA alles
Zeige --A aktuell
Zeige --A Monat
Zeige --A alles
Keine MMA-Anzeige
MMA:
Minimum Maximum Average (ber die Originaldaten)
MMA-Basis: 23.02.2003 - 16.05.2020
Quicknavigation für Darstellung... ?
Tage:      1T, 2T, 3T, 5T -1T -2T -3T -5T +1T +2T +3T +5T
Wochen: 1W, 2W, 3W -1W -2W -3W +1W +2W +3W
Monate: 1M, 3M, 6M -1M -3M -6M +1M +3M +6M
Jahre:    1J, 3J, 5J, 10J -1J -3J -5J -10J +1J +3J +5J +10J
Nutze für die Darstellung ... ?
Originaldaten oder ...
Mittelwerte Minima Maxima auf...
Stundenbasis Tagesbasis Wochenbasis
Monatsbasis Jahresbasis      Datenbasis: Mittelwerte auf Tagesbasis
Darstellen als:
Statistik (Auto) Statistik J:M      Darstellung:
Zur Graphik,    zurück zur Übersicht aller Sensoren.
 
Tabellarische Datenbersicht: ?
 
Sensor: Nr:Datum:Temp:Abs-Feuchte:Windchill:Wind:
Aussen-T/F 1 16-02-2017 00:00:00 4.06597 C 6.07 g/m*3 4.07 C 1.18472 km/h
2 17-02-2017 00:00:00 6.02222 C 6.96 g/m*3 6.02 C 2.96806 km/h
3 18-02-2017 00:00:00 5.94097 C 6.5 g/m*3 5.94 C 1.70625 km/h
4 19-02-2017 00:00:00 3.47083 C 5.61 g/m*3 3.47 C 3.00278 km/h
5 20-02-2017 00:00:00 8.45104 C 7.75 g/m*3 6.44 C 11.97813 km/h
6 21-02-2017 00:00:00 10.41458 C 8.89 g/m*3 9.59 C 7.53681 km/h
7 22-02-2017 00:00:00 11.10243 C 8.76 g/m*3 11.1 C 18.20694 km/h
8 23-02-2017 00:00:00 9.37708 C 7.43 g/m*3 6.61 C 19.84965 km/h
9 24-02-2017 00:00:00 5.21007 C 5.52 g/m*3 3.09 C 9.20625 km/h
10 25-02-2017 00:00:00 3.83993 C 5.34 g/m*3 3.84 C 4.95174 km/h
11 26-02-2017 00:00:00 8.62951 C 6.48 g/m*3 7.32 C 8.34965 km/h
12 27-02-2017 00:00:00 10.96042 C 7.31 g/m*3 9.9 C 9.25868 km/h
13 28-02-2017 00:00:00 5.79618 C 5.88 g/m*3 3.38 C 11.13576 km/h
14 01-03-2017 00:00:00 6.67257 C 6.59 g/m*3 4.48 C 10.88681 km/h
15 02-03-2017 00:00:00 8.27986 C 5.77 g/m*3 5.75 C 15.36493 km/h
16 03-03-2017 00:00:00 6.21771 C 5.65 g/m*3 6.22 C 2.29618 km/h
17 04-03-2017 00:00:00 10.95451 C 7.24 g/m*3 10.84 C 5.00243 km/h
18 05-03-2017 00:00:00 7.21354 C 6.83 g/m*3 5.91 C 7.27778 km/h
19 06-03-2017 00:00:00 6.48333 C 6.66 g/m*3 4.7 C 8.76563 km/h
20 07-03-2017 00:00:00 6.06806 C 6.71 g/m*3 6.07 C 3.06354 km/h
21 08-03-2017 00:00:00 5.01528 C 6.51 g/m*3 5.02 C 2.82014 km/h
22 09-03-2017 00:00:00 11.11146 C 8.6 g/m*3 11.11 C 7.32847 km/h
23 10-03-2017 00:00:00 7.4684 C 5.99 g/m*3 7.47 C 4.725 km/h
24 11-03-2017 00:00:00 6.7316 C 5.85 g/m*3 6.73 C 2.12813 km/h
25 12-03-2017 00:00:00 6.62813 C 5.53 g/m*3 6.63 C 3.32674 km/h
Sensor: Nr:Datum:Temp:Abs-Feuchte:Windchill:Wind:
Aussen-T/F 26 13-03-2017 00:00:00 6.71007 C 5.82 g/m*3 6.71 C 2.54063 km/h
27 14-03-2017 00:00:00 9.45625 C 7.24 g/m*3 9.46 C 2.57083 km/h
28 15-03-2017 00:00:00 10.41493 C 7.71 g/m*3 10.41 C 3.27083 km/h
29 16-03-2017 00:00:00 8.32569 C 6.68 g/m*3 8.33 C 1.23333 km/h
30 17-03-2017 00:00:00 8.68507 C 6.68 g/m*3 8.08 C 5.5809 km/h
31 18-03-2017 00:00:00 9.53889 C 8.03 g/m*3 7.51 C 13.73576 km/h
32 19-03-2017 00:00:00 12.1559 C 9.14 g/m*3 12.16 C 11.0316 km/h
33 20-03-2017 00:00:00 11.60278 C 7.72 g/m*3 11.6 C 14.36597 km/h
34 21-03-2017 00:00:00 9.375 C 7.52 g/m*3 8.6 C 6.57882 km/h
35 22-03-2017 00:00:00 5.39132 C 6.14 g/m*3 5.39 C 1.45729 km/h
36 23-03-2017 00:00:00 8.8434 C 7.15 g/m*3 8.84 C 4.19063 km/h
37 24-03-2017 00:00:00 9.49444 C 6.94 g/m*3 8.65 C 6.93194 km/h
38 25-03-2017 00:00:00 9.21424 C 5.86 g/m*3 8.39 C 6.6934 km/h
39 26-03-2017 00:00:00 9.36594 C 5.76 g/m*3 9.37 C 3.62899 km/h
40 27-03-2017 00:00:00 8.83194 C 5.65 g/m*3 8.83 C 3.46736 km/h
41 28-03-2017 00:00:00 10.73819 C 6.82 g/m*3 10.74 C 4.27882 km/h
42 29-03-2017 00:00:00 12.89063 C 8.3 g/m*3 12.89 C 7.35104 km/h
43 30-03-2017 00:00:00 14.33507 C 8.91 g/m*3 14.34 C 2.8191 km/h
44 31-03-2017 00:00:00 13.69896 C 8.18 g/m*3 13.7 C 4.2309 km/h
45 01-04-2017 00:00:00 13.59792 C 8.47 g/m*3 13.6 C 4.24132 km/h
46 02-04-2017 00:00:00 11.71736 C 7.77 g/m*3 11.72 C 4.33021 km/h
47 03-04-2017 00:00:00 10.47257 C 7.37 g/m*3 10.47 C 3.92778 km/h
48 04-04-2017 00:00:00 9.3059 C 6.62 g/m*3 9.31 C 3.32882 km/h
49 05-04-2017 00:00:00 8.78889 C 6.61 g/m*3 7.96 C 6.45451 km/h
50 06-04-2017 00:00:00 8.65278 C 6.36 g/m*3 7.49 C 7.69097 km/h
Sensor: Nr:Datum:Temp:Abs-Feuchte:Windchill:Wind:
Aussen-T/F 51 07-04-2017 00:00:00 11.31566 C 7.19 g/m*3 11.32 C 7.25241 km/h
52 08-04-2017 00:00:00 14.59887 C 7.97 g/m*3 14.6 C 4.75763 km/h
53 09-04-2017 00:00:00 12.46215 C 7.97 g/m*3 12.46 C 2.05694 km/h
54 10-04-2017 00:00:00 10.93993 C 7.53 g/m*3 10.46 C 6.38264 km/h
55 11-04-2017 00:00:00 9.67188 C 6.33 g/m*3 9.67 C 4.85278 km/h
56 12-04-2017 00:00:00 11.34167 C 6.89 g/m*3 11.34 C 9.22778 km/h
57 13-04-2017 00:00:00 11.57153 C 7.09 g/m*3 11.57 C 6.57951 km/h
58 14-04-2017 00:00:00 9.77708 C 6.35 g/m*3 9.78 C 4.1691 km/h
59 15-04-2017 00:00:00 9.0875 C 7.24 g/m*3 8.29 C 6.4809 km/h
60 16-04-2017 00:00:00 7.52083 C 6.34 g/m*3 6.9 C 5.11667 km/h
61 17-04-2017 00:00:00 6.82257 C 6.5 g/m*3 6.03 C 5.34063 km/h
62 18-04-2017 00:00:00 5.52187 C 5.69 g/m*3 3.68 C 8.26424 km/h
63 19-04-2017 00:00:00 4.23646 C 4.56 g/m*3 2.91 C 5.81875 km/h
64 20-04-2017 00:00:00 4.68715 C 4.58 g/m*3 4.69 C 3.11042 km/h
65 21-04-2017 00:00:00 7.98299 C 5.84 g/m*3 7.98 C 2.52326 km/h
66 22-04-2017 00:00:00 9.60278 C 6.63 g/m*3 8.52 C 8.09826 km/h
67 23-04-2017 00:00:00 7.34722 C 5.44 g/m*3 6.41 C 6.025 km/h
68 24-04-2017 00:00:00 8.25764 C 5.77 g/m*3 8.26 C 4.07396 km/h
69 25-04-2017 00:00:00 8.07118 C 5.7 g/m*3 7.08 C 6.63993 km/h
70 26-04-2017 00:00:00 7.03611 C 5.28 g/m*3 7.04 C 3.30938 km/h
71 27-04-2017 00:00:00 7.07917 C 5.27 g/m*3 7.08 C 4.62569 km/h
72 28-04-2017 00:00:00 6.15972 C 5.83 g/m*3 6.16 C 2.76806 km/h
73 29-04-2017 00:00:00 8.79132 C 6.22 g/m*3 8.79 C 3.25972 km/h
74 30-04-2017 00:00:00 11.04896 C 6.1 g/m*3 11.05 C 5.44514 km/h
75 01-05-2017 00:00:00 10.13576 C 8.06 g/m*3 10.14 C 2.02361 km/h
Sensor: Nr:Datum:Temp:Abs-Feuchte:Windchill:Wind:
Aussen-T/F 76 02-05-2017 00:00:00 9.00868 C 8.42 g/m*3 9.01 C 0.85139 km/h
77 03-05-2017 00:00:00 10.15694 C 8.6 g/m*3 10.16 C 2.26319 km/h
78 04-05-2017 00:00:00 11.64722 C 9.35 g/m*3 11.65 C 2.42014 km/h
79 05-05-2017 00:00:00 11.58021 C 8.41 g/m*3 11.58 C 3.00451 km/h
80 06-05-2017 00:00:00 12.91042 C 8.8 g/m*3 12.91 C 3.59826 km/h
81 07-05-2017 00:00:00 13.1434 C 10.71 g/m*3 13.14 C 2.08194 km/h
82 08-05-2017 00:00:00 9.64306 C 7.98 g/m*3 8.78 C 7.14514 km/h
83 09-05-2017 00:00:00 9.69931 C 6.5 g/m*3 9.7 C 4.24028 km/h
84 10-05-2017 00:00:00 10.29583 C 6.76 g/m*3 10.3 C 2.94722 km/h
85 11-05-2017 00:00:00 14.23542 C 8.94 g/m*3 14.24 C 2.98646 km/h
86 12-05-2017 00:00:00 15.89479 C 11.59 g/m*3 15.89 C 2.9941 km/h
87 13-05-2017 00:00:00 17.24514 C 11.06 g/m*3 17.25 C 5.48472 km/h
88 14-05-2017 00:00:00 16.17049 C 11.14 g/m*3 16.17 C 3.77431 km/h
89 15-05-2017 00:00:00 15.43403 C 9.48 g/m*3 15.43 C 2.76597 km/h

Maximal/Minimal-Werte vom 23.02.2003 - 16.05.2020

Sensor Min Max Avg
Temp
(Aussen-T/F)
-16.4 °C
20-12-2009  01:30:01
40.4 °C
25-07-2019  16:20:00
11.1 °C

Die Daten stammen von einer Davis Vantage Pro 2 Wetter-Station und werden unter Linux mit der Software wview2wettercgi und aufbereitet. Alle Angaben erfolgen ohne Gewähr für ihre Vollständigkeit oder Richtigkeit.
Kontakt: Rainer Krienke krienke@uni-koblenz.de . Meine Webseiten an der Uni Koblenz oder privat.
Version: $Revision: 0.78 $